Time;durP1;ratioP1;P1;durP2;ratioP2;P2;SDS_P1;SDS_P2;PMS_P1;PMS_P2;Temp;Humidity;BMP_temperature;BMP_pressure;BME280_temperature;BME280_humidity;BME280_pressure;Samples;Min_cycle;Max_cycle;Signal;HPM_P1;HPM_P2
2024/04/15 19:34:18;;;;;;;9.50;5.20;;;;;;;25.54;36.16;98238.06;5434233;26;20730;-79
2024/04/15 19:36:43;;;;;;;15.45;5.20;;;;;;;25.39;36.40;98243.78;5433544;26;19999;-80
2024/04/15 19:39:09;;;;;;;10.38;5.20;;;;;;;25.26;36.32;98243.94;5402517;26;19995;-81
2024/04/15 19:41:37;;;;;;;8.23;5.00;;;;;;;25.20;36.88;98237.63;5433404;26;20003;-80
2024/04/15 19:44:05;;;;;;;8.27;4.65;;;;;;;25.12;37.13;98237.91;5404526;26;20003;-79
2024/04/15 19:46:32;;;;;;;10.35;5.13;;;;;;;25.04;37.41;98236.38;5434598;26;20018;-81
2024/04/15 19:48:58;;;;;;;9.23;5.85;;;;;;;24.98;37.32;98237.25;5432901;26;20678;-79
2024/04/15 19:51:23;;;;;;;11.32;6.28;;;;;;;24.86;37.76;98223.84;5435658;26;19999;-79
2024/04/15 19:53:49;;;;;;;9.82;6.88;;;;;;;24.92;37.71;98244.31;5433286;26;19995;-81
2024/04/15 19:56:14;;;;;;;9.32;6.72;;;;;;;24.90;37.94;98248.22;5403059;26;19995;-79
2024/04/15 19:58:40;;;;;;;12.77;7.50;;;;;;;24.86;37.80;98258.53;5403181;26;20010;-80
2024/04/15 20:01:05;;;;;;;10.75;7.15;;;;;;;24.84;37.87;98249.13;5432672;26;20343;-79
2024/04/15 20:03:31;;;;;;;12.07;6.97;;;;;;;24.84;38.52;98236.59;5432174;26;20007;-80
2024/04/15 20:05:59;;;;;;;19.42;6.70;;;;;;;24.81;39.21;98228.19;5434360;26;19995;-81
2024/04/15 20:08:26;;;;;;;9.43;6.28;;;;;;;24.79;39.43;98224.94;5432464;26;19999;-79
2024/04/15 20:10:51;;;;;;;7.88;6.20;;;;;;;24.77;38.96;98224.38;5402013;26;20076;-79
2024/04/15 20:13:17;;;;;;;11.10;6.50;;;;;;;24.73;39.12;98218.63;5431976;26;20007;-80
2024/04/15 20:15:42;;;;;;;11.13;6.43;;;;;;;24.70;39.32;98219.06;5413064;26;20015;-81
2024/04/15 20:18:10;;;;;;;9.13;5.72;;;;;;;24.69;39.21;98220.13;5395472;26;20019;-81
2024/04/15 20:20:45;;;;;;;10.70;5.70;;;;;;;24.66;39.21;98218.69;5426966;26;20069;-81
2024/04/15 20:23:14;;;;;;;7.50;5.63;;;;;;;24.66;39.23;98229.38;5373014;26;19999;-80
2024/04/15 20:25:40;;;;;;;8.48;5.28;;;;;;;24.61;39.13;98217.75;5400705;26;20010;-82
2024/04/15 20:28:06;;;;;;;8.13;5.43;;;;;;;24.62;39.28;98225.53;5398810;26;19996;-79
2024/04/15 20:30:32;;;;;;;8.65;5.43;;;;;;;24.59;39.43;98223.31;5398237;26;20018;-78
2024/04/15 20:33:01;;;;;;;8.45;5.10;;;;;;;24.56;39.26;98226.38;5399080;26;19992;-82
2024/04/15 20:35:26;;;;;;;6.30;5.05;;;;;;;24.58;39.27;98226.19;5398866;26;20000;-80
2024/04/15 20:37:52;;;;;;;7.57;4.70;;;;;;;24.55;39.42;98219.41;5428566;26;20522;-81
2024/04/15 20:40:20;;;;;;;9.15;4.57;;;;;;;24.55;39.32;98225.53;5398654;26;20081;-79
2024/04/15 20:42:45;;;;;;;4.97;4.03;;;;;;;24.51;39.22;98212.88;5398555;26;20000;-80
2024/04/15 20:45:12;;;;;;;7.13;4.10;;;;;;;24.49;39.16;98215.75;5414670;26;19996;-80
2024/04/15 20:47:38;;;;;;;6.90;4.25;;;;;;;24.48;39.26;98219.47;5412584;26;19996;-82
2024/04/15 20:50:04;;;;;;;8.30;4.32;;;;;;;24.47;39.25;98220.50;5383132;26;20006;-79
2024/04/15 20:52:30;;;;;;;4.70;3.55;;;;;;;24.46;39.11;98221.53;5383864;26;19993;-78
2024/04/15 20:54:55;;;;;;;5.97;3.85;;;;;;;24.45;39.47;98229.75;5383697;26;20007;-79
2024/04/15 20:57:21;;;;;;;7.72;4.50;;;;;;;24.42;39.48;98219.53;5383439;26;20504;-79
2024/04/15 20:59:47;;;;;;;6.35;3.92;;;;;;;24.40;39.43;98230.44;5413129;26;20004;-78
2024/04/15 21:02:13;;;;;;;8.88;3.78;;;;;;;24.38;39.50;98235.97;5405471;26;20000;-80
2024/04/15 21:04:39;;;;;;;7.68;3.65;;;;;;;24.35;39.36;98232.91;5387523;26;19999;-78
2024/04/15 21:07:04;;;;;;;6.25;3.95;;;;;;;24.33;39.70;98233.13;5417983;26;20389;-80
2024/04/15 21:09:29;;;;;;;6.78;3.60;;;;;;;24.32;39.51;98226.19;5388796;26;19991;-79
2024/04/15 21:11:55;;;;;;;5.35;3.67;;;;;;;24.31;39.63;98221.06;5389735;26;20006;-79
2024/04/15 21:14:20;;;;;;;5.72;3.63;;;;;;;24.28;39.49;98222.31;5420146;26;20331;-80
2024/04/15 21:16:47;;;;;;;10.85;3.67;;;;;;;24.23;39.45;98211.50;5418653;26;20041;-80
2024/04/15 21:19:13;;;;;;;5.70;3.10;;;;;;;24.23;39.21;98211.50;5388344;26;20002;-79
2024/04/15 21:21:38;;;;;;;7.57;3.50;;;;;;;24.22;39.55;98220.50;5417064;26;19995;-79
2024/04/15 21:24:04;;;;;;;4.43;3.08;;;;;;;24.19;39.42;98219.13;5418048;26;20062;-79
2024/04/15 21:26:29;;;;;;;4.78;3.00;;;;;;;24.16;39.28;98205.38;5388892;26;19995;-79
2024/04/15 21:28:55;;;;;;;5.32;3.03;;;;;;;24.15;39.42;98207.25;5359639;26;19992;-79
2024/04/15 21:31:20;;;;;;;5.75;3.17;;;;;;;24.14;39.54;98204.78;5416301;26;20006;-78
2024/04/15 21:33:46;;;;;;;5.45;3.13;;;;;;;24.10;39.61;98200.91;5417501;26;19995;-77
2024/04/15 21:36:11;;;;;;;5.40;3.25;;;;;;;24.13;39.64;98205.81;5388131;26;20438;-78
2024/04/15 21:38:39;;;;;;;5.78;2.72;;;;;;;24.13;39.61;98197.81;5419584;26;20067;-79
2024/04/15 21:41:05;;;;;;;6.55;2.95;;;;;;;24.08;39.64;98187.00;5417920;26;20006;-79
2024/04/15 21:43:30;;;;;;;6.55;3.00;;;;;;;24.09;39.59;98189.44;5358832;26;20450;-80
2024/04/15 21:45:56;;;;;;;6.68;2.97;;;;;;;24.10;39.73;98190.25;5388436;26;19999;-81
2024/04/15 21:48:21;;;;;;;4.57;3.00;;;;;;;24.10;39.65;98190.25;5388607;26;20003;-79
2024/04/15 21:50:47;;;;;;;6.10;2.80;;;;;;;24.09;39.78;98193.97;5418704;26;19992;-79
2024/04/15 21:53:13;;;;;;;5.95;3.03;;;;;;;24.08;39.86;98187.81;5388885;26;20006;-79
2024/04/15 21:55:41;;;;;;;5.32;2.80;;;;;;;24.05;39.67;98179.44;5416823;26;20064;-81
2024/04/15 21:58:07;;;;;;;5.57;2.72;;;;;;;24.07;39.88;98186.19;5358965;26;20010;-80
2024/04/15 22:00:32;;;;;;;7.85;3.00;;;;;;;24.07;39.65;98188.84;5381973;26;20428;-78
2024/04/15 22:02:58;;;;;;;7.70;2.90;;;;;;;24.06;39.75;98184.53;5351897;26;20003;-79
2024/04/15 22:05:23;;;;;;;5.80;3.22;;;;;;;24.05;39.95;98187.44;5353532;26;20005;-79
2024/04/15 22:07:49;;;;;;;10.52;4.50;;;;;;;24.04;39.73;98189.28;5381264;26;19996;-79
2024/04/15 22:10:15;;;;;;;6.07;5.10;;;;;;;24.04;39.57;98181.28;5383466;26;20003;-80
2024/04/15 22:12:41;;;;;;;12.38;6.20;;;;;;;24.04;39.95;98175.97;5381622;26;20003;-79
2024/04/15 22:15:06;;;;;;;10.05;5.85;;;;;;;24.03;39.67;98176.97;5381030;26;19996;-79
2024/04/15 22:17:32;;;;;;;10.73;5.95;;;;;;;24.03;39.78;98168.97;5353004;26;20318;-78
2024/04/15 22:20:01;;;;;;;11.13;6.03;;;;;;;24.03;39.85;98171.66;5381798;26;20004;-79
2024/04/15 22:22:29;;;;;;;10.30;6.10;;;;;;;24.00;39.83;98170.25;5353055;26;20032;-79
2024/04/15 22:24:54;;;;;;;9.45;5.63;;;;;;;24.02;39.68;98181.50;5383833;26;20001;-79
2024/04/15 22:27:20;;;;;;;9.43;5.75;;;;;;;24.01;39.65;98193.19;5381759;26;19996;-80
2024/04/15 22:29:45;;;;;;;7.72;5.55;;;;;;;24.02;39.69;98196.66;5380768;26;20554;-79
2024/04/15 22:32:11;;;;;;;6.53;5.30;;;;;;;23.98;39.76;98190.16;5383370;26;20006;-79
2024/04/15 22:34:37;;;;;;;6.50;4.50;;;;;;;23.98;39.92;98179.50;5383870;26;20004;-79
2024/04/15 22:37:02;;;;;;;6.82;5.00;;;;;;;23.95;39.63;98175.41;5380821;26;19992;-79
2024/04/15 22:39:30;;;;;;;7.55;4.78;;;;;;;23.98;39.95;98174.16;5381449;26;19996;-80
2024/04/15 22:41:57;;;;;;;8.82;4.85;;;;;;;23.93;39.86;98155.34;5353144;26;20004;-78
2024/04/15 22:44:23;;;;;;;6.38;4.63;;;;;;;23.92;39.45;98153.69;5380999;26;19999;-78
2024/04/15 22:46:48;;;;;;;5.38;4.18;;;;;;;23.92;39.77;98146.50;5352102;26;19992;-78
2024/04/15 22:49:14;;;;;;;6.10;4.40;;;;;;;23.90;39.68;98134.47;5353171;26;20446;-77
2024/04/15 22:51:40;;;;;;;10.20;4.68;;;;;;;23.90;39.76;98137.13;5380295;26;20331;-77
2024/04/15 22:54:06;;;;;;;9.05;6.03;;;;;;;23.89;40.00;98135.47;5380788;26;20024;-76
2024/04/15 22:56:31;;;;;;;10.52;8.15;;;;;;;23.87;39.87;98133.03;5380357;26;20331;-76
2024/04/15 22:58:57;;;;;;;11.68;8.90;;;;;;;23.85;39.88;98137.78;5380644;26;19996;-75
2024/04/15 23:01:23;;;;;;;11.90;8.98;;;;;;;23.83;39.77;98123.78;5382313;26;19996;-77
2024/04/15 23:03:51;;;;;;;12.95;8.65;;;;;;;23.84;39.95;98120.94;5381029;26;19992;-76
2024/04/15 23:06:16;;;;;;;10.98;7.90;;;;;;;23.82;39.86;98117.66;5380919;26;20000;-76
2024/04/15 23:08:42;;;;;;;10.30;7.85;;;;;;;23.82;40.00;98114.19;5381542;26;20000;-75
2024/04/15 23:11:07;;;;;;;10.65;7.30;;;;;;;23.80;40.13;98102.94;5382199;26;20020;-76
2024/04/15 23:13:33;;;;;;;8.73;6.70;;;;;;;23.80;39.90;98100.28;5409872;26;20042;-77
2024/04/15 23:15:59;;;;;;;12.82;6.88;;;;;;;23.81;39.83;98101.88;5380128;26;19992;-76
2024/04/15 23:18:24;;;;;;;10.32;6.63;;;;;;;23.77;39.94;98101.50;5380289;26;20003;-77
2024/04/15 23:20:50;;;;;;;9.38;6.00;;;;;;;23.76;39.68;98107.88;5380826;26;19996;-78
2024/04/15 23:23:17;;;;;;;9.10;6.20;;;;;;;23.72;39.79;98105.84;5382383;26;19992;-76
2024/04/15 23:25:42;;;;;;;9.38;5.75;;;;;;;23.74;39.82;98107.28;5380238;26;20460;-76
2024/04/15 23:28:11;;;;;;;7.65;5.78;;;;;;;23.73;40.01;98099.50;5382218;26;20070;-76
2024/04/15 23:30:36;;;;;;;8.70;5.55;;;;;;;23.73;39.89;98105.63;5382221;26;20000;-77
2024/04/15 23:33:02;;;;;;;7.15;5.47;;;;;;;23.70;39.96;98099.94;5409946;26;20069;-77
2024/04/15 23:35:28;;;;;;;7.50;5.30;;;;;;;23.72;39.71;98104.03;5380028;26;20002;-76
2024/04/15 23:37:53;;;;;;;7.97;6.15;;;;;;;23.73;39.91;98099.50;5380591;26;19992;-77
2024/04/15 23:40:18;;;;;;;14.02;8.55;;;;;;;23.71;39.95;98105.03;5409442;26;20004;-77
2024/04/15 23:42:44;;;;;;;14.65;9.57;;;;;;;23.70;39.70;98106.06;5379874;26;20011;-77
2024/04/15 23:45:10;;;;;;;12.80;9.02;;;;;;;23.68;39.90;98105.47;5351209;26;20012;-77
2024/04/15 23:47:35;;;;;;;14.02;9.60;;;;;;;23.64;40.05;98102.44;5351651;26;19996;-77
2024/04/15 23:50:01;;;;;;;13.65;8.88;;;;;;;23.62;40.21;98101.00;5380360;26;20003;-77
2024/04/15 23:52:26;;;;;;;12.00;8.65;;;;;;;23.65;40.07;98109.38;5382088;26;20032;-77
2024/04/15 23:54:52;;;;;;;14.77;8.15;;;;;;;23.64;40.19;98115.75;5381890;26;20310;-77
2024/04/15 23:57:17;;;;;;;10.80;8.15;;;;;;;23.64;39.95;98110.44;5382056;26;20430;-76
2024/04/15 23:59:43;;;;;;;10.70;7.85;;;;;;;23.61;39.98;98113.53;5380168;26;20008;-77
